Time;durP1;ratioP1;P1;durP2;ratioP2;P2;SDS_P1;SDS_P2;PMS_P1;PMS_P2;Temp;Humidity;BMP_temperature;BMP_pressure;BME280_temperature;BME280_humidity;BME280_pressure;Samples;Min_cycle;Max_cycle;Signal;HPM_P1;HPM_P2
2021/12/21 00:00:42;;;;;;;;;;;;;;;9.84;36.69;100070.06;4467372;32;34402;-73
2021/12/21 00:03:10;;;;;;;;;;;;;;;8.53;38.91;100075.69;4469502;32;33389;-72
2021/12/21 00:05:37;;;;;;;;;;;;;;;8.98;38.85;100080.94;4465425;32;33950;-72
2021/12/21 00:08:08;;;;;;;;;;;;;;;8.98;38.12;100068.44;4465031;32;35225;-71
2021/12/21 00:10:36;;;;;;;;;;;;;;;9.39;36.58;100067.63;4468279;32;33878;-71
2021/12/21 00:13:10;;;;;;;;;;;;;;;9.09;36.76;100076.66;4468537;32;34484;-72
2021/12/21 00:18:24;;;;;;;;;;;;;;;8.44;38.54;100078.91;4467985;32;34240;-72
2021/12/21 00:21:13;;;;;;;;;;;;;;;8.40;39.21;100088.06;4475110;32;33084;-74
2021/12/21 00:23:44;;;;;;;;;;;;;;;8.58;38.20;100091.44;4479340;32;33526;-77
2021/12/21 00:26:15;;;;;;;;;;;;;;;7.67;39.37;100099.41;4473131;32;34869;-78
2021/12/21 00:28:58;;;;;;;;;;;;;;;7.97;38.26;100079.94;4478890;32;35364;-77
2021/12/21 00:31:30;;;;;;;;;;;;;;;8.13;40.29;100090.53;4468762;32;32643;-78
2021/12/21 00:33:58;;;;;;;;;;;;;;;9.05;36.12;100088.50;4472050;32;34418;-77
2021/12/21 00:36:26;;;;;;;;;;;;;;;8.71;36.52;100092.41;4465332;32;34091;-79
2021/12/21 00:38:55;;;;;;;;;;;;;;;8.44;37.50;100094.91;4466231;32;35239;-78
2021/12/21 00:41:24;;;;;;;;;;;;;;;8.33;39.35;100100.03;4467613;32;33763;-77
2021/12/21 00:43:52;;;;;;;;;;;;;;;8.68;37.02;100100.59;4483275;32;33432;-79
2021/12/21 00:46:20;;;;;;;;;;;;;;;8.40;37.28;100104.91;4465836;32;33930;-79
2021/12/21 00:48:53;;;;;;;;;;;;;;;8.62;39.38;100104.47;4467586;32;34328;-77
2021/12/21 00:51:22;;;;;;;;;;;;;;;7.86;39.04;100099.19;4466680;32;34126;-79
2021/12/21 00:53:49;;;;;;;;;;;;;;;8.42;36.77;100106.66;4467009;32;31785;-80
2021/12/21 00:56:16;;;;;;;;;;;;;;;7.74;40.10;100113.25;4465248;31;35515;-79
2021/12/21 00:58:44;;;;;;;;;;;;;;;7.37;40.04;100117.12;4472841;32;34865;-78
2021/12/21 01:01:11;;;;;;;;;;;;;;;8.06;40.07;100124.72;4462500;32;35137;-77
2021/12/21 01:03:44;;;;;;;;;;;;;;;7.97;41.90;100129.72;4466748;32;33461;-72
2021/12/21 01:06:24;;;;;;;;;;;;;;;7.40;40.10;100125.78;4468625;32;35453;-69
2021/12/21 01:09:07;;;;;;;;;;;;;;;7.23;40.99;100125.88;4472417;31;35472;-70
2021/12/21 01:11:49;;;;;;;;;;;;;;;7.92;39.20;100116.62;4466634;32;34662;-70
2021/12/21 01:17:00;;;;;;;;;;;;;;;7.22;42.23;100127.69;4472116;32;34125;-69
2021/12/21 01:19:39;;;;;;;;;;;;;;;7.44;39.22;100132.66;4471632;31;34129;-69
2021/12/21 01:22:18;;;;;;;;;;;;;;;7.76;38.94;100153.09;4477999;32;35076;-71
2021/12/21 01:35:34;;;;;;;;;;;;;;;8.14;38.62;100153.56;4469620;32;31884;-70
2021/12/21 01:51:23;;;;;;;;;;;;;;;7.94;40.90;100138.75;4470358;32;34362;-71
2021/12/21 01:53:50;;;;;;;;;;;;;;;7.64;39.88;100136.88;4470744;32;34354;-70
2021/12/21 01:56:18;;;;;;;;;;;;;;;6.89;40.13;100148.97;4465827;32;33298;-71
2021/12/21 01:58:45;;;;;;;;;;;;;;;7.93;38.67;100145.87;4469957;32;34608;-70
2021/12/21 02:01:14;;;;;;;;;;;;;;;8.18;38.17;100147.09;4474143;32;35206;-71
2021/12/21 02:03:47;;;;;;;;;;;;;;;8.24;39.30;100146.75;4474974;32;34859;-71
2021/12/21 02:06:16;;;;;;;;;;;;;;;7.77;40.99;100146.81;4470205;32;34073;-74
2021/12/21 02:08:44;;;;;;;;;;;;;;;7.89;38.57;100146.13;4474946;31;34076;-74
2021/12/21 02:11:11;;;;;;;;;;;;;;;7.13;41.62;100149.47;4476505;32;34411;-75
2021/12/21 02:13:43;;;;;;;;;;;;;;;6.82;39.66;100152.06;4474548;31;34124;-74
2021/12/21 02:16:11;;;;;;;;;;;;;;;7.05;43.26;100148.16;4470871;32;33173;-74
2021/12/21 02:23:51;;;;;;;;;;;;;;;7.19;38.36;100151.81;4465884;32;32841;-70
2021/12/21 02:29:10;;;;;;;;;;;;;;;6.79;40.14;100139.75;4467873;32;33966;-70
2021/12/21 02:31:38;;;;;;;;;;;;;;;6.90;39.50;100147.16;4466630;32;34136;-70
2021/12/21 02:34:05;;;;;;;;;;;;;;;6.54;37.74;100137.53;4464767;32;34271;-73
2021/12/21 02:36:33;;;;;;;;;;;;;;;6.85;41.45;100141.25;4469367;32;33231;-70
2021/12/21 02:39:01;;;;;;;;;;;;;;;6.63;38.20;100144.16;4471848;32;33932;-71
2021/12/21 02:41:29;;;;;;;;;;;;;;;6.61;38.99;100148.69;4470986;32;34312;-71
2021/12/21 02:43:56;;;;;;;;;;;;;;;7.26;37.68;100151.47;4476021;32;35166;-70
2021/12/21 02:46:24;;;;;;;;;;;;;;;7.02;39.79;100164.28;4467161;32;34293;-70
2021/12/21 02:48:52;;;;;;;;;;;;;;;7.07;37.25;100165.78;4474275;32;34098;-69
2021/12/21 02:51:19;;;;;;;;;;;;;;;7.35;36.96;100167.81;4468846;31;34432;-72
2021/12/21 02:53:47;;;;;;;;;;;;;;;6.89;38.51;100166.75;4473153;32;34831;-71
2021/12/21 02:56:14;;;;;;;;;;;;;;;7.20;37.00;100177.47;4474802;31;33189;-71
2021/12/21 02:58:41;;;;;;;;;;;;;;;7.16;37.94;100175.94;4473045;32;34117;-74
2021/12/21 03:01:10;;;;;;;;;;;;;;;6.48;37.06;100165.28;4466873;32;35334;-72
2021/12/21 03:03:37;;;;;;;;;;;;;;;6.19;39.26;100169.41;4469867;32;35213;-73
2021/12/21 03:06:10;;;;;;;;;;;;;;;7.13;37.42;100181.41;4469434;31;33597;-73
2021/12/21 03:08:45;;;;;;;;;;;;;;;6.33;39.09;100182.03;4474523;32;34828;-73
2021/12/21 03:11:25;;;;;;;;;;;;;;;6.04;37.63;100183.50;4474040;32;35036;-73
2021/12/21 03:14:04;;;;;;;;;;;;;;;6.86;37.39;100189.03;4471301;32;33791;-73
2021/12/21 03:16:36;;;;;;;;;;;;;;;6.15;37.76;100188.25;4474675;32;33497;-70
2021/12/21 03:19:04;;;;;;;;;;;;;;;6.92;36.14;100193.19;4471702;32;33871;-70
2021/12/21 03:21:34;;;;;;;;;;;;;;;7.10;36.24;100197.56;4471330;32;34217;-71
2021/12/21 03:24:02;;;;;;;;;;;;;;;6.54;38.70;100188.03;4471615;32;34248;-70
2021/12/21 03:26:29;;;;;;;;;;;;;;;6.68;36.65;100193.53;4471127;32;32954;-70
2021/12/21 03:28:57;;;;;;;;;;;;;;;6.97;38.04;100193.81;4471624;32;34090;-73
2021/12/21 03:31:24;;;;;;;;;;;;;;;7.15;36.34;100195.47;4468866;32;33876;-73
2021/12/21 03:33:52;;;;;;;;;;;;;;;6.65;38.74;100207.00;4471826;31;33581;-72
2021/12/21 03:36:19;;;;;;;;;;;;;;;6.77;37.39;100200.16;4466151;32;33194;-72
2021/12/21 03:38:52;;;;;;;;;;;;;;;7.49;34.33;100214.13;4468412;32;34842;-72
2021/12/21 03:41:20;;;;;;;;;;;;;;;7.08;34.62;100220.72;4468377;32;35236;-73
2021/12/21 03:43:48;;;;;;;;;;;;;;;7.43;35.47;100220.63;4469336;32;34540;-72
2021/12/21 03:46:16;;;;;;;;;;;;;;;7.98;33.39;100224.72;4468557;31;32284;-73
2021/12/21 03:48:45;;;;;;;;;;;;;;;8.03;32.75;100225.34;4472407;32;32988;-72
2021/12/21 03:51:17;;;;;;;;;;;;;;;8.06;32.84;100225.16;4471817;32;35229;-72
2021/12/21 03:53:44;;;;;;;;;;;;;;;8.26;32.56;100224.88;4472146;32;33760;-72
2021/12/21 03:56:31;;;;;;;;;;;;;;;8.35;33.61;100229.69;4466010;32;34363;-73
2021/12/21 03:58:59;;;;;;;;;;;;;;;8.25;32.56;100228.50;4470616;32;33945;-73
2021/12/21 04:01:27;;;;;;;;;;;;;;;8.87;31.58;100233.78;4468444;32;34432;-72
2021/12/21 04:03:54;;;;;;;;;;;;;;;8.94;31.08;100236.94;4476669;32;34058;-73
2021/12/21 04:06:22;;;;;;;;;;;;;;;7.25;33.99;100230.47;4467175;32;32198;-72
2021/12/21 04:08:49;;;;;;;;;;;;;;;7.22;35.71;100231.50;4466738;32;34200;-72
2021/12/21 04:11:17;;;;;;;;;;;;;;;7.78;34.61;100233.84;4467523;32;33950;-73
2021/12/21 04:13:44;;;;;;;;;;;;;;;8.29;32.67;100227.37;4472413;32;34342;-73
2021/12/21 04:16:11;;;;;;;;;;;;;;;7.70;33.04;100239.56;4469839;32;33801;-71
2021/12/21 04:18:39;;;;;;;;;;;;;;;7.37;35.98;100232.47;4478233;31;34133;-71
2021/12/21 04:21:09;;;;;;;;;;;;;;;8.28;32.91;100227.44;4472001;32;33938;-71
2021/12/21 04:23:36;;;;;;;;;;;;;;;8.68;31.84;100231.34;4470267;32;34246;-68
2021/12/21 04:26:03;;;;;;;;;;;;;;;7.81;32.25;100239.00;4466706;32;31915;-72
2021/12/21 04:28:30;;;;;;;;;;;;;;;8.38;31.55;100234.00;4464352;32;34129;-73
2021/12/21 04:30:58;;;;;;;;;;;;;;;7.74;33.29;100234.94;4464295;32;34103;-72
2021/12/21 04:33:25;;;;;;;;;;;;;;;7.49;34.53;100249.59;4475956;32;34422;-76
2021/12/21 04:35:53;;;;;;;;;;;;;;;7.88;33.68;100246.56;4471633;32;33613;-72
2021/12/21 04:38:21;;;;;;;;;;;;;;;8.37;31.76;100243.75;4474963;32;34100;-72
2021/12/21 04:40:57;;;;;;;;;;;;;;;8.43;32.98;100250.59;4471731;32;33966;-72
2021/12/21 04:43:25;;;;;;;;;;;;;;;8.19;32.37;100254.66;4471129;32;32692;-72
2021/12/21 04:45:53;;;;;;;;;;;;;;;7.58;32.90;100257.09;4466536;32;32066;-71
2021/12/21 04:48:20;;;;;;;;;;;;;;;7.86;33.74;100263.56;4468461;32;34192;-72
2021/12/21 04:50:48;;;;;;;;;;;;;;;7.51;36.48;100260.16;4470811;31;33021;-72
2021/12/21 04:53:16;;;;;;;;;;;;;;;7.47;33.10;100256.81;4471165;32;32426;-71
2021/12/21 04:55:43;;;;;;;;;;;;;;;7.83;32.69;100261.06;4469295;31;33689;-71
2021/12/21 04:58:10;;;;;;;;;;;;;;;7.33;34.37;100262.88;4472763;32;34163;-72
2021/12/21 05:00:38;;;;;;;;;;;;;;;7.75;34.72;100265.97;4474378;31;34286;-71
2021/12/21 05:03:05;;;;;;;;;;;;;;;7.98;33.52;100267.37;4467105;32;33908;-71
2021/12/21 05:05:33;;;;;;;;;;;;;;;8.16;32.07;100277.87;4465203;32;33782;-71
2021/12/21 05:10:45;;;;;;;;;;;;;;;8.13;31.70;100278.03;4470890;32;33160;-72
2021/12/21 05:13:13;;;;;;;;;;;;;;;8.53;32.63;100283.78;4475213;32;35104;-75
2021/12/21 05:15:41;;;;;;;;;;;;;;;8.74;32.73;100279.03;4473704;32;33565;-74
2021/12/21 05:18:11;;;;;;;;;;;;;;;8.64;33.58;100283.19;4474704;31;34283;-74
2021/12/21 05:20:39;;;;;;;;;;;;;;;8.27;30.28;100293.25;4474895;32;34004;-74
2021/12/21 05:23:07;;;;;;;;;;;;;;;9.64;29.00;100288.72;4467630;32;36971;-74
2021/12/21 05:25:35;;;;;;;;;;;;;;;9.22;29.52;100301.09;4467598;32;33516;-75
2021/12/21 05:28:03;;;;;;;;;;;;;;;9.25;29.56;100306.25;4474746;32;35131;-75
2021/12/21 05:30:31;;;;;;;;;;;;;;;9.19;30.23;100305.75;4470215;32;34286;-75
2021/12/21 05:32:59;;;;;;;;;;;;;;;9.57;28.52;100308.78;4468955;32;34153;-75
2021/12/21 05:35:26;;;;;;;;;;;;;;;9.20;29.20;100302.97;4465053;32;33317;-75
2021/12/21 05:37:58;;;;;;;;;;;;;;;8.97;29.89;100299.03;4464037;32;34993;-74
2021/12/21 05:40:41;;;;;;;;;;;;;;;8.87;29.37;100295.19;4471731;32;35255;-74
2021/12/21 05:43:09;;;;;;;;;;;;;;;9.05;29.64;100299.44;4469112;32;33435;-74
2021/12/21 05:45:37;;;;;;;;;;;;;;;9.39;30.14;100302.72;4471004;32;33554;-74
2021/12/21 05:48:05;;;;;;;;;;;;;;;9.73;26.88;100306.00;4468981;32;34399;-74
2021/12/21 05:50:33;;;;;;;;;;;;;;;8.86;30.04;100320.16;4472385;31;33174;-74
2021/12/21 05:53:00;;;;;;;;;;;;;;;9.17;28.70;100321.00;4476128;32;33920;-75
2021/12/21 05:55:27;;;;;;;;;;;;;;;9.43;27.39;100320.28;4476063;31;34237;-74
2021/12/21 05:57:55;;;;;;;;;;;;;;;9.94;26.48;100331.38;4472849;32;34129;-74
2021/12/21 06:00:23;;;;;;;;;;;;;;;9.91;27.59;100338.75;4464322;32;35312;-74
2021/12/21 06:02:51;;;;;;;;;;;;;;;9.91;28.94;100344.09;4468202;32;33785;-74
2021/12/21 06:05:18;;;;;;;;;;;;;;;9.66;27.46;100342.06;4471025;32;33447;-74
2021/12/21 06:07:49;;;;;;;;;;;;;;;10.22;27.20;100341.19;4467378;32;33588;-77
2021/12/21 06:10:24;;;;;;;;;;;;;;;9.93;27.56;100342.19;4469997;32;33380;-74
2021/12/21 06:26:16;;;;;;;;;;;;;;;10.36;27.74;100382.31;4472866;32;32361;-72
2021/12/21 06:28:44;;;;;;;;;;;;;;;10.37;27.78;100379.53;4472924;31;34350;-72
2021/12/21 06:31:12;;;;;;;;;;;;;;;10.69;27.38;100382.81;4467558;32;34390;-74
2021/12/21 06:33:39;;;;;;;;;;;;;;;10.67;27.56;100384.72;4472770;32;32720;-74
2021/12/21 06:36:07;;;;;;;;;;;;;;;10.51;27.77;100388.50;4471319;32;33323;-74
2021/12/21 06:38:35;;;;;;;;;;;;;;;10.69;27.71;100393.53;4474100;31;33790;-76
2021/12/21 06:41:03;;;;;;;;;;;;;;;9.66;30.65;100404.44;4475438;32;34319;-73
2021/12/21 06:43:32;;;;;;;;;;;;;;;10.64;27.96;100398.31;4467355;32;34896;-70
2021/12/21 06:46:11;;;;;;;;;;;;;;;10.73;27.85;100395.03;4476186;32;33148;-70
2021/12/21 06:53:53;;;;;;;;;;;;;;;12.87;24.77;100393.66;4470028;32;35108;-70
2021/12/21 06:56:24;;;;;;;;;;;;;;;14.19;23.22;100390.66;4477508;32;33404;-70
2021/12/21 06:58:53;;;;;;;;;;;;;;;14.90;21.88;100390.38;4474601;32;34740;-70
2021/12/21 07:01:22;;;;;;;;;;;;;;;13.86;23.32;100401.38;4474576;32;34289;-70
2021/12/21 07:03:49;;;;;;;;;;;;;;;13.62;23.25;100410.37;4477434;32;34985;-70
2021/12/21 07:06:18;;;;;;;;;;;;;;;14.40;22.45;100409.63;4472632;32;34591;-70
2021/12/21 07:08:52;;;;;;;;;;;;;;;15.09;22.05;100404.03;4470985;32;34071;-70
2021/12/21 07:11:31;;;;;;;;;;;;;;;15.80;21.02;100408.88;4475303;32;34156;-71
2021/12/21 07:19:31;;;;;;;;;;;;;;;15.77;20.96;100404.59;4468393;32;35236;-69
2021/12/21 07:21:59;;;;;;;;;;;;;;;15.37;21.04;100402.53;4470685;32;34260;-70
2021/12/21 07:24:26;;;;;;;;;;;;;;;15.60;20.66;100397.03;4468518;32;34070;-71
2021/12/21 07:26:54;;;;;;;;;;;;;;;15.71;20.02;100398.88;4467711;32;34221;-70
2021/12/21 07:29:21;;;;;;;;;;;;;;;15.40;20.73;100406.84;4468699;32;34037;-70
2021/12/21 07:31:48;;;;;;;;;;;;;;;15.45;21.06;100406.47;4472712;32;32930;-70
2021/12/21 07:34:16;;;;;;;;;;;;;;;16.23;20.17;100405.12;4474333;32;33908;-70
2021/12/21 07:36:43;;;;;;;;;;;;;;;16.33;21.03;100415.97;4467781;32;33516;-70
2021/12/21 07:39:13;;;;;;;;;;;;;;;16.44;20.28;100414.03;4468635;32;35094;-70
2021/12/21 07:41:41;;;;;;;;;;;;;;;16.64;19.57;100408.72;4474135;32;35462;-70
2021/12/21 07:44:09;;;;;;;;;;;;;;;15.91;20.81;100411.50;4478598;32;34810;-70
2021/12/21 07:46:36;;;;;;;;;;;;;;;16.08;20.83;100407.31;4470988;32;33369;-72
2021/12/21 07:49:04;;;;;;;;;;;;;;;16.28;20.84;100417.25;4475829;32;33041;-70
2021/12/21 07:51:32;;;;;;;;;;;;;;;16.68;19.46;100419.09;4473577;32;34443;-69
2021/12/21 07:53:59;;;;;;;;;;;;;;;16.27;19.55;100414.66;4477631;32;34555;-69
2021/12/21 07:56:27;;;;;;;;;;;;;;;16.05;20.97;100421.09;4475492;32;34848;-71
2021/12/21 07:58:54;;;;;;;;;;;;;;;17.64;19.00;100416.69;4467929;32;34454;-70
2021/12/21 08:01:22;;;;;;;;;;;;;;;18.27;17.91;100414.31;4471638;32;34304;-70
2021/12/21 08:03:50;;;;;;;;;;;;;;;20.01;16.37;100411.41;4477142;32;33888;-70
2021/12/21 08:06:17;;;;;;;;;;;;;;;19.65;16.99;100407.91;4476652;32;33679;-70
2021/12/21 08:08:46;;;;;;;;;;;;;;;21.02;15.64;100406.13;4474329;32;34002;-71
2021/12/21 08:11:28;;;;;;;;;;;;;;;20.69;15.96;100406.00;4472727;32;32819;-73
2021/12/21 08:13:56;;;;;;;;;;;;;;;19.77;16.41;100407.50;4480203;32;34406;-70
2021/12/21 08:16:24;;;;;;;;;;;;;;;18.81;16.93;100411.78;4471034;32;34433;-70
2021/12/21 08:18:51;;;;;;;;;;;;;;;18.98;16.78;100418.25;4475195;32;35185;-70
2021/12/21 08:21:19;;;;;;;;;;;;;;;18.58;17.24;100423.00;4475437;32;34292;-70
2021/12/21 08:23:47;;;;;;;;;;;;;;;17.83;18.64;100423.97;4479499;32;35097;-70
2021/12/21 08:26:14;;;;;;;;;;;;;;;16.96;19.39;100431.03;4476106;32;32225;-73
2021/12/21 08:28:41;;;;;;;;;;;;;;;17.66;18.45;100428.22;4477349;32;34132;-71
2021/12/21 08:31:12;;;;;;;;;;;;;;;17.49;19.19;100427.06;4479783;32;32907;-71
2021/12/21 08:33:40;;;;;;;;;;;;;;;17.87;18.54;100423.50;4474033;32;35226;-71
2021/12/21 08:36:09;;;;;;;;;;;;;;;18.33;17.84;100427.25;4473094;32;33400;-71
2021/12/21 08:38:38;;;;;;;;;;;;;;;17.79;18.71;100430.66;4473488;32;32763;-71
2021/12/21 08:41:05;;;;;;;;;;;;;;;18.61;17.93;100428.13;4473187;32;33295;-71
2021/12/21 08:43:35;;;;;;;;;;;;;;;19.50;16.83;100426.59;4471381;32;34657;-71
2021/12/21 08:46:02;;;;;;;;;;;;;;;18.89;17.68;100432.75;4473438;32;33437;-71
2021/12/21 08:48:31;;;;;;;;;;;;;;;17.85;18.72;100432.81;4467749;32;34155;-71
2021/12/21 08:51:00;;;;;;;;;;;;;;;17.07;20.14;100435.44;4464793;32;34450;-71
2021/12/21 08:53:27;;;;;;;;;;;;;;;16.55;20.61;100437.41;4476055;32;33264;-71
2021/12/21 08:55:55;;;;;;;;;;;;;;;16.91;19.95;100445.94;4472905;32;34408;-71
2021/12/21 08:58:23;;;;;;;;;;;;;;;15.69;21.33;100447.56;4471336;32;34034;-71
2021/12/21 09:00:51;;;;;;;;;;;;;;;16.44;21.11;100437.50;4467940;32;34376;-71
2021/12/21 09:03:20;;;;;;;;;;;;;;;15.95;21.39;100436.38;4470125;32;32924;-70
2021/12/21 09:05:47;;;;;;;;;;;;;;;15.38;22.61;100443.87;4472714;32;32851;-73
2021/12/21 09:08:15;;;;;;;;;;;;;;;16.52;22.11;100443.06;4471431;32;35239;-70
2021/12/21 09:10:42;;;;;;;;;;;;;;;17.53;20.80;100452.00;4467094;32;34527;-71
2021/12/21 09:13:09;;;;;;;;;;;;;;;17.03;22.55;100457.50;4472461;32;35041;-70
2021/12/21 09:15:38;;;;;;;;;;;;;;;17.64;20.31;100449.16;4473708;32;34351;-70
2021/12/21 09:18:05;;;;;;;;;;;;;;;16.49;21.57;100446.91;4471019;32;34300;-70
2021/12/21 09:20:33;;;;;;;;;;;;;;;16.71;21.46;100440.44;4466451;32;34853;-70
2021/12/21 09:23:00;;;;;;;;;;;;;;;16.17;22.77;100452.44;4475274;32;34803;-70
2021/12/21 09:25:28;;;;;;;;;;;;;;;16.75;22.17;100441.06;4470977;32;33130;-70
2021/12/21 09:27:56;;;;;;;;;;;;;;;18.16;20.23;100441.56;4474700;32;34100;-70
2021/12/21 09:30:24;;;;;;;;;;;;;;;17.86;20.24;100437.22;4440152;32;868062;-73
2021/12/21 09:32:52;;;;;;;;;;;;;;;18.16;20.63;100433.44;4475660;32;34976;-70
2021/12/21 09:35:19;;;;;;;;;;;;;;;18.34;20.19;100433.53;4469960;32;33368;-70
2021/12/21 09:37:47;;;;;;;;;;;;;;;17.91;19.99;100435.78;4474086;32;33886;-70
2021/12/21 09:40:19;;;;;;;;;;;;;;;17.44;20.96;100435.62;4473615;32;34161;-71
2021/12/21 09:42:46;;;;;;;;;;;;;;;16.76;23.13;100438.22;4474036;32;34407;-70
2021/12/21 09:45:14;;;;;;;;;;;;;;;18.15;20.39;100439.84;4475610;32;34223;-70
2021/12/21 09:47:42;;;;;;;;;;;;;;;19.08;19.64;100438.03;4478061;32;34288;-70
2021/12/21 09:50:12;;;;;;;;;;;;;;;19.00;19.49;100433.34;4474296;32;34478;-70
2021/12/21 09:52:39;;;;;;;;;;;;;;;19.84;18.83;100424.03;4470740;32;34003;-69
2021/12/21 09:55:08;;;;;;;;;;;;;;;20.47;18.34;100412.84;4472633;32;31767;-70
2021/12/21 09:57:35;;;;;;;;;;;;;;;20.75;17.95;100417.28;4468688;32;32727;-70
2021/12/21 10:00:05;;;;;;;;;;;;;;;19.80;18.20;100414.47;4470575;32;35109;-73
2021/12/21 10:02:34;;;;;;;;;;;;;;;19.04;19.52;100413.06;4474736;32;33982;-69
2021/12/21 10:05:07;;;;;;;;;;;;;;;18.74;19.61;100410.69;4476610;32;31804;-70
2021/12/21 10:07:34;;;;;;;;;;;;;;;18.05;20.16;100412.78;4471902;32;34137;-71
2021/12/21 10:10:07;;;;;;;;;;;;;;;16.80;22.22;100417.19;4474837;32;34142;-73
2021/12/21 10:12:39;;;;;;;;;;;;;;;16.69;22.27;100409.13;4476916;32;32896;-71
2021/12/21 10:15:08;;;;;;;;;;;;;;;17.10;23.13;100410.81;4473086;32;33487;-70
2021/12/21 10:17:35;;;;;;;;;;;;;;;17.84;20.96;100407.56;4471559;32;33850;-70
2021/12/21 10:20:06;;;;;;;;;;;;;;;18.14;21.65;100397.53;4465000;32;34972;-70
2021/12/21 10:22:34;;;;;;;;;;;;;;;18.13;21.04;100403.91;4477027;32;34410;-70
2021/12/21 10:25:02;;;;;;;;;;;;;;;17.96;20.99;100393.88;4477566;32;31792;-71
2021/12/21 10:27:29;;;;;;;;;;;;;;;18.44;20.32;100387.41;4473489;32;34257;-71
2021/12/21 10:29:59;;;;;;;;;;;;;;;18.93;19.83;100390.72;4474249;32;34005;-75
2021/12/21 10:32:27;;;;;;;;;;;;;;;19.73;19.07;100389.81;4476874;32;35041;-71
2021/12/21 10:34:59;;;;;;;;;;;;;;;19.59;18.87;100384.91;4472158;32;32669;-71
2021/12/21 10:37:28;;;;;;;;;;;;;;;19.24;19.47;100388.50;4470796;32;32659;-71
2021/12/21 10:40:04;;;;;;;;;;;;;;;19.04;19.76;100379.69;4473768;32;35365;-71
2021/12/21 10:42:42;;;;;;;;;;;;;;;17.75;21.91;100381.31;4473140;32;32809;-74
2021/12/21 10:45:10;;;;;;;;;;;;;;;17.63;20.63;100388.75;4470223;32;33504;-73
2021/12/21 10:47:37;;;;;;;;;;;;;;;17.84;20.75;100377.75;4472181;32;34215;-73
2021/12/21 10:50:05;;;;;;;;;;;;;;;17.13;22.18;100372.69;4470830;32;34789;-75
2021/12/21 10:52:33;;;;;;;;;;;;;;;17.75;20.87;100378.59;4476133;32;35154;-75
2021/12/21 10:55:01;;;;;;;;;;;;;;;17.74;21.59;100381.47;4472403;32;31813;-76
2021/12/21 10:57:31;;;;;;;;;;;;;;;16.90;23.16;100379.34;4467251;32;34262;-75
2021/12/21 11:00:00;;;;;;;;;;;;;;;17.27;21.81;100375.94;4470088;32;33814;-74
2021/12/21 11:02:31;;;;;;;;;;;;;;;16.99;21.91;100368.53;4459002;32;33466;-75
2021/12/21 11:05:00;;;;;;;;;;;;;;;16.84;21.66;100375.34;4476400;32;33031;-75
2021/12/21 11:07:34;;;;;;;;;;;;;;;16.44;22.50;100368.12;4470180;32;34256;-74
2021/12/21 11:10:14;;;;;;;;;;;;;;;16.72;22.16;100371.88;4471928;32;35311;-74
2021/12/21 11:13:03;;;;;;;;;;;;;;;17.53;21.94;100363.56;4468913;32;35679;-75
2021/12/21 11:15:34;;;;;;;;;;;;;;;18.84;20.39;100355.41;4474106;32;33248;-74
2021/12/21 11:18:06;;;;;;;;;;;;;;;19.13;19.93;100357.00;4470256;32;33190;-74
2021/12/21 11:20:35;;;;;;;;;;;;;;;19.25;19.16;100350.34;4473286;32;34332;-74
2021/12/21 11:23:05;;;;;;;;;;;;;;;18.83;20.63;100344.69;4472912;32;35066;-73
2021/12/21 11:25:33;;;;;;;;;;;;;;;19.18;20.00;100343.84;4469919;32;32212;-73
2021/12/21 11:28:01;;;;;;;;;;;;;;;19.47;19.00;100342.75;4469918;32;34065;-72
2021/12/21 11:30:29;;;;;;;;;;;;;;;18.48;19.86;100342.75;4473606;32;35367;-73
2021/12/21 11:32:57;;;;;;;;;;;;;;;17.29;21.13;100336.94;4476919;32;33764;-73
2021/12/21 11:37:54;;;;;;;;;;;;;;;16.19;22.40;100333.47;4473522;32;33918;-72
2021/12/21 11:40:23;;;;;;;;;;;;;;;15.44;25.11;100340.00;4470480;32;35447;-73
2021/12/21 11:42:50;;;;;;;;;;;;;;;14.68;26.03;100354.41;4474667;32;35403;-72
2021/12/21 11:45:25;;;;;;;;;;;;;;;13.91;27.61;100348.94;4471255;32;33087;-73
2021/12/21 11:48:10;;;;;;;;;;;;;;;14.38;25.92;100348.78;4475948;32;34270;-72
2021/12/21 11:50:40;;;;;;;;;;;;;;;13.11;26.48;100343.47;4470439;32;33656;-73
2021/12/21 11:53:08;;;;;;;;;;;;;;;12.75;27.01;100345.25;4473493;32;34203;-73
2021/12/21 11:55:37;;;;;;;;;;;;;;;12.09;29.22;100342.00;4475562;32;33085;-74
2021/12/21 11:58:16;;;;;;;;;;;;;;;11.90;28.91;100338.91;4474572;32;32710;-73
2021/12/21 12:00:57;;;;;;;;;;;;;;;11.20;31.57;100339.25;4471769;32;34226;-72
2021/12/21 12:03:25;;;;;;;;;;;;;;;11.68;30.02;100336.84;4470680;32;34472;-73
2021/12/21 12:06:04;;;;;;;;;;;;;;;11.24;32.05;100332.75;4474612;32;34251;-72
2021/12/21 12:08:49;;;;;;;;;;;;;;;11.49;30.54;100342.63;4478694;32;35363;-73
2021/12/21 12:11:25;;;;;;;;;;;;;;;10.28;34.04;100334.63;4473380;32;33492;-73
2021/12/21 12:14:24;;;;;;;;;;;;;;;11.03;32.21;100329.69;4475551;32;34009;-74
2021/12/21 12:16:56;;;;;;;;;;;;;;;10.55;34.48;100336.47;4452298;32;34055;-74
2021/12/21 12:19:27;;;;;;;;;;;;;;;11.32;30.28;100330.38;4472161;32;34222;-75
2021/12/21 12:21:59;;;;;;;;;;;;;;;11.08;32.78;100329.41;4470601;32;35387;-74
2021/12/21 12:24:33;;;;;;;;;;;;;;;11.18;31.07;100325.13;4470960;32;33987;-73
2021/12/21 12:27:03;;;;;;;;;;;;;;;11.64;30.07;100325.47;4471223;32;33601;-73
2021/12/21 12:30:01;;;;;;;;;;;;;;;11.16;31.81;100332.41;4468241;32;33928;-74
2021/12/21 12:32:33;;;;;;;;;;;;;;;11.62;29.64;100331.91;4470683;32;32759;-75
2021/12/21 12:35:05;;;;;;;;;;;;;;;10.83;31.16;100336.38;4466238;32;33815;-75
2021/12/21 12:37:33;;;;;;;;;;;;;;;11.91;28.84;100337.97;4471786;32;33287;-74
2021/12/21 12:40:05;;;;;;;;;;;;;;;11.58;29.35;100338.44;4470972;32;34207;-75
2021/12/21 12:42:34;;;;;;;;;;;;;;;12.44;27.44;100338.59;4474248;32;34289;-75
2021/12/21 12:45:05;;;;;;;;;;;;;;;12.21;28.54;100340.25;4469461;32;33936;-76
2021/12/21 12:47:35;;;;;;;;;;;;;;;11.98;29.44;100328.50;4469964;32;33373;-75
2021/12/21 12:50:03;;;;;;;;;;;;;;;12.90;27.31;100331.63;4471751;32;35071;-75
2021/12/21 12:52:31;;;;;;;;;;;;;;;13.43;26.53;100332.09;4477272;32;34301;-75
2021/12/21 12:55:01;;;;;;;;;;;;;;;13.52;26.60;100336.78;4475844;32;34184;-75
2021/12/21 12:57:28;;;;;;;;;;;;;;;13.20;28.14;100333.84;4474552;32;31755;-74
2021/12/21 13:00:07;;;;;;;;;;;;;;;12.85;28.22;100333.81;4470875;32;35460;-75
2021/12/21 13:02:35;;;;;;;;;;;;;;;12.83;28.58;100336.59;4465883;32;34328;-75
2021/12/21 13:05:06;;;;;;;;;;;;;;;14.16;25.99;100326.28;4465006;32;34789;-75
2021/12/21 13:07:34;;;;;;;;;;;;;;;13.97;26.17;100326.91;4470940;32;33292;-75
2021/12/21 13:10:09;;;;;;;;;;;;;;;14.34;25.46;100336.53;4466784;32;34134;-74
2021/12/21 13:12:37;;;;;;;;;;;;;;;14.29;25.63;100336.09;4474835;32;33348;-75
2021/12/21 13:15:06;;;;;;;;;;;;;;;14.16;25.73;100334.38;4470334;32;34926;-75
2021/12/21 13:17:33;;;;;;;;;;;;;;;12.93;27.20;100343.00;4467472;32;33333;-74
2021/12/21 13:20:01;;;;;;;;;;;;;;;13.78;26.37;100331.19;4469126;32;34360;-75
2021/12/21 13:22:29;;;;;;;;;;;;;;;14.36;25.73;100338.13;4466511;32;34231;-74
2021/12/21 13:24:56;;;;;;;;;;;;;;;14.18;25.83;100340.47;4469325;32;34908;-74
2021/12/21 13:27:24;;;;;;;;;;;;;;;14.31;24.81;100337.66;4469180;32;34198;-76
2021/12/21 13:29:52;;;;;;;;;;;;;;;13.57;26.21;100336.41;4474808;32;34170;-74
2021/12/21 13:32:20;;;;;;;;;;;;;;;12.92;26.80;100341.28;4475323;32;34291;-74
2021/12/21 13:34:52;;;;;;;;;;;;;;;12.97;27.57;100349.00;4471728;32;34933;-74
2021/12/21 13:37:20;;;;;;;;;;;;;;;12.94;26.71;100341.19;4473519;32;34119;-74
2021/12/21 13:39:48;;;;;;;;;;;;;;;13.35;25.95;100326.44;4472901;32;34249;-74
2021/12/21 13:42:18;;;;;;;;;;;;;;;13.63;25.60;100334.09;4468737;32;35032;-74
2021/12/21 13:44:47;;;;;;;;;;;;;;;13.16;26.21;100330.53;4470111;32;34403;-73
2021/12/21 13:47:15;;;;;;;;;;;;;;;12.78;27.27;100336.13;4467475;32;33247;-74
2021/12/21 13:50:10;;;;;;;;;;;;;;;13.63;25.52;100328.72;4469656;32;34849;-75
2021/12/21 13:52:39;;;;;;;;;;;;;;;13.54;25.76;100331.25;4469402;32;34952;-74
2021/12/21 13:55:19;;;;;;;;;;;;;;;13.52;25.69;100331.41;4476226;32;34060;-74
2021/12/21 13:57:47;;;;;;;;;;;;;;;13.23;26.41;100331.78;4472045;32;33175;-74
2021/12/21 14:00:15;;;;;;;;;;;;;;;13.59;25.97;100331.78;4469733;32;34539;-74